.
WxDataArchive / Data Records for 2013-11-28
2013-11-27 November 2013 2013-11-29

Data Records for Thursday, 28 November 2013

Time	Temp	Chill	HIndex	Humid	Dewpt	 Wind 	HiWind	WindDir	Rain 	Barom 
-----	----	-----	------	-----	-----	------	------	-------	-----	----- 
00:00	25.0	25.0	25.0	78	19.1	0	3	292	0.00	30.258 
00:05	25.0	25.0	25.0	78	19.1	0	1	292	0.00	30.258 
00:10	25.0	25.0	25.0	78	19.1	0	2	292	0.00	30.258 
00:15	25.0	25.0	25.0	77	18.8	0	1	292	0.00	30.254 
00:20	24.8	24.8	24.8	77	18.6	0	1	292	0.00	30.254 
00:25	24.8	24.8	24.8	77	18.6	0	1	292	0.00	30.254 
00:30	24.8	24.8	24.8	76	18.3	0	3	292	0.00	30.252 
00:35	24.7	24.7	24.7	76	18.2	0	1	292	0.00	30.252 
00:40	24.7	24.7	24.7	76	18.2	0	2	292	0.00	30.252 
00:45	24.5	24.5	24.5	76	18.0	0	2	292	0.00	30.251 
00:50	24.4	24.4	24.4	76	17.9	0	1	292	0.00	30.251 
00:55	24.4	24.4	24.4	76	17.9	0	1	292	0.00	30.251 
01:00	24.4	24.4	24.4	76	17.9	0	1	292	0.00	30.256 
01:05	24.4	24.4	24.4	76	17.9	0	2	292	0.00	30.256 
01:10	24.4	24.4	24.4	76	17.9	0	1	292	0.00	30.256 
01:15	24.4	24.4	24.4	76	17.9	0	1	292	0.00	30.258 
01:20	24.4	24.4	24.4	76	17.9	0	1	292	0.00	30.258 
01:25	24.4	24.4	24.4	76	17.9	0	1	292	0.00	30.258 
01:30	24.4	24.4	24.4	76	17.9	0	3	292	0.00	30.258 
01:35	24.4	24.4	24.4	76	17.9	0	1	292	0.00	30.258 
01:40	24.4	24.4	24.4	76	17.9	0	1	292	0.00	30.258 
01:45	24.4	24.4	24.4	76	17.9	0	1	292	0.00	30.257 
01:50	24.4	24.4	24.4	76	17.9	0	2	292	0.00	30.257 
01:55	24.2	24.2	24.2	75	17.4	0	2	292	0.00	30.257 
02:00	24.2	24.2	24.2	75	17.4	0	2	292	0.00	30.261 
02:05	24.2	24.2	24.2	75	17.4	0	2	292	0.00	30.261 
02:10	24.2	24.2	24.2	75	17.4	0	2	292	0.00	30.261 
02:15	24.2	24.2	24.2	75	17.4	0	1	292	0.00	30.267 
02:20	24.1	24.1	24.1	74	17.0	0	1	292	0.00	30.267 
02:25	24.1	24.1	24.1	74	17.0	0	3	292	0.00	30.267 
02:30	24.1	24.1	24.1	73	16.7	0	1	292	0.00	30.271 
02:35	24.1	24.1	24.1	72	16.4	0	1	292	0.00	30.271 
02:40	24.1	24.1	24.1	72	16.4	0	2	292	0.00	30.271 
02:45	24.1	24.1	24.1	71	16.1	0	1	292	0.00	30.273 
02:50	24.1	24.1	24.1	71	16.1	0	2	292	0.00	30.273 
02:55	24.1	24.1	24.1	70	15.8	0	1	292	0.00	30.273 
03:00	24.1	24.1	24.1	70	15.8	0	1	292	0.00	30.281 
03:05	24.1	24.1	24.1	69	15.4	0	2	292	0.00	30.281 
03:10	24.1	24.1	24.1	69	15.4	0	1	292	0.00	30.281 
03:15	24.1	24.1	24.1	68	15.1	0	2	292	0.00	30.280 
03:20	24.1	24.1	24.1	68	15.1	0	2	292	0.00	30.280 
03:25	24.1	24.1	24.1	67	14.8	0	1	292	0.00	30.280 
03:30	24.1	24.1	24.1	66	14.4	0	2	292	0.00	30.280 
03:35	24.1	24.1	24.1	66	14.4	0	1	292	0.00	30.280 
03:40	24.1	24.1	24.1	66	14.4	0	1	292	0.00	30.280 
03:45	24.1	24.1	24.1	66	14.4	0	1	292	0.00	30.286 
03:50	24.1	24.1	24.1	66	14.4	0	1	292	0.00	30.286 
03:55	24.1	24.1	24.1	66	14.4	0	1	292	0.00	30.286 
04:00	24.1	24.1	24.1	66	14.4	0	0	---	0.00	30.283 
04:05	24.1	24.1	24.1	66	14.4	0	1	292	0.00	30.283 
04:10	24.1	24.1	24.1	66	14.4	0	1	292	0.00	30.283 
04:15	24.1	24.1	24.1	66	14.4	0	0	---	0.00	30.287 
04:20	24.2	24.2	24.2	66	14.5	0	1	292	0.00	30.287 
04:25	24.2	24.2	24.2	67	14.8	0	1	292	0.00	30.287 
04:30	24.2	24.2	24.2	66	14.5	0	0	---	0.00	30.288 
04:35	24.4	24.4	24.4	66	14.7	0	1	292	0.00	30.288 
04:40	24.4	24.4	24.4	66	14.7	0	2	292	0.00	30.288 
04:45	24.4	24.4	24.4	65	14.3	0	1	292	0.00	30.285 
04:50	24.4	24.4	24.4	64	14.0	0	2	292	0.00	30.285 
04:55	24.4	24.4	24.4	64	14.0	0	1	292	0.00	30.285 
05:00	24.4	24.4	24.4	63	13.6	0	3	292	0.00	30.287 
05:05	24.4	24.4	24.4	63	13.6	0	2	292	0.00	30.287 
05:10	24.4	24.4	24.4	63	13.6	0	2	292	0.00	30.287 
05:15	24.5	24.5	24.5	63	13.7	0	1	292	0.00	30.293 
05:20	24.5	24.5	24.5	63	13.7	0	2	292	0.00	30.293 
05:25	24.5	24.5	24.5	63	13.7	0	1	292	0.00	30.293 
05:30	24.4	24.4	24.4	63	13.6	0	1	292	0.00	30.291 
05:35	24.4	24.4	24.4	63	13.6	0	1	292	0.00	30.291 
05:40	24.2	24.2	24.2	63	13.4	0	0	---	0.00	30.291 
05:45	24.2	24.2	24.2	63	13.4	0	2	292	0.00	30.298 
05:50	24.1	24.1	24.1	63	13.4	0	1	292	0.00	30.298 
05:55	24.1	24.1	24.1	62	13.0	0	2	292	0.00	30.298 
06:00	24.1	24.1	24.1	62	13.0	0	3	292	0.00	30.302 
06:05	23.9	23.9	23.9	62	12.8	0	2	292	0.00	30.302 
06:10	23.9	23.9	23.9	62	12.8	0	1	292	0.00	30.302 
06:15	23.9	23.9	23.9	62	12.8	0	1	292	0.00	30.307 
06:20	24.1	24.1	24.1	62	13.0	0	1	292	0.00	30.307 
06:25	23.9	23.9	23.9	62	12.8	0	2	292	0.00	30.307 
06:30	23.9	23.9	23.9	62	12.8	0	2	292	0.00	30.316 
06:35	23.9	23.9	23.9	61	12.4	0	2	292	0.00	30.316 
06:40	23.9	23.9	23.9	60	12.1	0	2	292	0.00	30.316 
06:45	24.1	24.1	24.1	61	12.6	0	1	292	0.00	30.322 
06:50	24.1	24.1	24.1	61	12.6	0	1	292	0.00	30.322 
06:55	24.1	24.1	24.1	61	12.6	0	1	292	0.00	30.322 
07:00	24.1	24.1	24.1	62	13.0	0	1	292	0.00	30.320 
07:05	24.1	24.1	24.1	62	13.0	0	1	292	0.00	30.320 
07:10	24.1	24.1	24.1	63	13.4	0	0	---	0.00	30.320 
07:15	23.9	23.9	23.9	63	13.2	0	1	292	0.00	30.323 
07:20	23.9	23.9	23.9	63	13.2	0	2	292	0.00	30.323 
07:25	23.8	23.8	23.8	63	13.1	0	1	292	0.00	30.323 
07:30	23.8	23.8	23.8	63	13.1	0	1	292	0.00	30.332 
07:35	23.6	23.6	23.6	63	12.9	0	1	292	0.00	30.332 
07:40	23.6	23.6	23.6	63	12.9	0	1	292	0.00	30.332 
07:45	23.6	23.6	23.6	64	13.2	0	1	292	0.00	30.338 
07:50	23.6	23.6	23.6	64	13.2	0	1	292	0.00	30.338 
07:55	23.6	23.6	23.6	63	12.9	0	1	292	0.00	30.338 
08:00	23.6	23.6	23.6	64	13.2	0	1	292	0.00	30.343 
08:05	23.6	23.6	23.6	64	13.2	0	1	292	0.00	30.343 
08:10	23.6	23.6	23.6	64	13.2	0	1	292	0.00	30.343 
08:15	23.6	23.6	23.6	64	13.2	0	1	292	0.00	30.344 
08:20	23.6	23.6	23.6	64	13.2	0	1	292	0.00	30.344 
08:25	23.6	23.6	23.6	65	13.6	0	1	292	0.00	30.344 
08:30	23.6	23.6	23.6	65	13.6	0	2	292	0.00	30.345 
08:35	23.6	23.6	23.6	66	13.9	0	3	292	0.00	30.345 
08:40	23.6	23.6	23.6	66	13.9	0	2	292	0.00	30.345 
08:45	23.8	23.8	23.8	66	14.1	0	2	292	0.00	30.342 
08:50	23.8	23.8	23.8	66	14.1	0	2	292	0.00	30.342 
08:55	23.8	23.8	23.8	66	14.1	0	3	292	0.00	30.342 
09:00	23.8	23.8	23.8	66	14.1	0	1	292	0.00	30.342 
09:05	23.9	23.9	23.9	66	14.2	0	3	292	0.00	30.342 
09:10	23.9	23.9	23.9	67	14.6	0	2	68	0.00	30.342 
09:15	24.1	24.1	24.1	66	14.4	0	1	225	0.00	30.348 
09:20	24.1	24.1	24.1	67	14.8	0	3	225	0.00	30.348 
09:25	24.2	24.2	24.2	67	14.8	0	3	45	0.00	30.348 
09:30	24.2	24.2	24.2	66	14.5	0	5	45	0.00	30.341 
09:35	24.4	24.4	24.4	66	14.7	0	2	90	0.00	30.341 
09:40	24.5	24.5	24.5	65	14.4	0	2	90	0.00	30.341 
09:45	24.5	24.5	24.5	65	14.4	0	3	90	0.00	30.339 
09:50	24.7	24.7	24.7	65	14.6	0	2	90	0.00	30.339 
09:55	24.7	24.7	24.7	65	14.6	1	3	90	0.00	30.339 
10:00	24.8	24.8	24.8	63	14.0	0	3	90	0.00	30.337 
10:05	25.0	25.0	25.0	63	14.2	0	2	90	0.00	30.337 
10:10	25.0	25.0	25.0	62	13.8	0	4	90	0.00	30.337 
10:15	25.1	25.1	25.1	62	13.9	0	3	90	0.00	30.335 
10:20	25.3	25.3	25.3	62	14.1	0	3	90	0.00	30.335 
10:25	25.3	25.3	25.3	61	13.8	0	3	90	0.00	30.335 
10:30	25.3	25.3	25.3	61	13.8	1	3	270	0.00	30.334 
10:35	25.3	25.3	25.3	60	13.4	0	3	270	0.00	30.334 
10:40	25.4	25.4	25.4	60	13.5	0	2	270	0.00	30.334 
10:45	25.4	25.4	25.4	60	13.5	0	2	270	0.00	30.329 
10:50	25.6	25.6	25.6	60	13.7	0	2	270	0.00	30.329 
10:55	25.6	25.6	25.6	59	13.3	0	2	270	0.00	30.329 
11:00	25.7	25.7	25.7	58	13.0	1	3	270	0.00	30.328 
11:05	25.7	25.7	25.7	58	13.0	0	2	270	0.00	30.328 
11:10	25.7	25.7	25.7	59	13.4	0	1	270	0.00	30.328 
11:15	25.8	25.8	25.8	59	13.5	0	3	270	0.00	30.320 
11:20	26.0	26.0	26.0	59	13.7	0	2	270	0.00	30.320 
11:25	26.0	26.0	26.0	59	13.7	0	4	270	0.00	30.320 
11:30	26.0	26.0	26.0	59	13.7	0	3	270	0.00	30.303 
11:35	26.0	26.0	26.0	59	13.7	1	3	292	0.00	30.303 
11:40	26.0	26.0	26.0	59	13.7	1	3	90	0.00	30.303 
11:45	26.1	26.1	26.1	58	13.4	1	7	45	0.00	30.299 
11:50	26.1	26.1	26.1	58	13.4	1	2	292	0.00	30.299 
11:55	26.3	26.3	26.3	57	13.2	1	3	248	0.00	30.299 
12:00	26.3	26.3	26.3	56	12.8	1	3	248	0.00	30.297 
12:05	26.4	26.4	26.4	57	13.3	1	3	248	0.00	30.297 
12:10	26.4	26.4	26.4	56	12.9	1	5	248	0.00	30.297 
12:15	26.4	26.4	26.4	55	12.5	1	5	248	0.00	30.290 
12:20	26.6	26.6	26.6	55	12.6	1	3	248	0.00	30.290 
12:25	26.6	26.6	26.6	55	12.6	1	5	248	0.00	30.290 
12:30	26.7	26.7	26.7	54	12.3	1	4	248	0.00	30.288 
12:35	26.7	26.7	26.7	54	12.3	1	5	248	0.00	30.288 
12:40	26.9	26.9	26.9	54	12.5	1	4	248	0.00	30.288 
12:45	27.0	27.0	27.0	53	12.2	1	3	270	0.00	30.281 
12:50	27.0	27.0	27.0	52	11.7	1	5	248	0.00	30.281 
12:55	27.2	27.2	27.2	52	11.9	0	2	248	0.00	30.281 
13:00	27.3	27.3	27.3	51	11.6	1	7	270	0.00	30.278 
13:05	27.5	27.5	27.5	51	11.8	1	4	270	0.00	30.278 
13:10	27.6	27.6	27.6	50	11.4	0	3	248	0.00	30.278 
13:15	27.6	27.6	27.6	50	11.4	2	5	248	0.00	30.272 
13:20	27.8	27.8	27.8	51	12.1	0	2	248	0.00	30.272 
13:25	27.8	27.8	27.8	50	11.6	0	4	248	0.00	30.272 
13:30	28.1	28.1	28.1	50	11.9	0	3	248	0.00	30.269 
13:35	28.1	28.1	28.1	49	11.4	1	4	248	0.00	30.269 
13:40	28.1	28.1	28.1	49	11.4	1	3	248	0.00	30.269 
13:45	28.1	28.1	28.1	50	11.9	0	4	248	0.00	30.268 
13:50	28.2	28.2	28.2	50	12.0	1	3	248	0.00	30.268 
13:55	28.2	28.2	28.2	49	11.5	1	4	248	0.00	30.268 
14:00	28.4	28.4	28.4	49	11.7	0	3	248	0.00	30.257 
14:05	28.4	28.4	28.4	50	12.2	0	2	248	0.00	30.257 
14:10	28.5	28.5	28.5	49	11.8	1	3	248	0.00	30.257 
14:15	28.7	28.7	28.7	50	12.4	0	3	248	0.00	30.254 
14:20	28.8	28.8	28.8	50	12.5	0	4	248	0.00	30.254 
14:25	28.8	28.8	28.8	49	12.1	0	2	90	0.00	30.254 
14:30	29.0	29.0	29.0	49	12.3	0	4	68	0.00	30.254 
14:35	29.0	29.0	29.0	49	12.3	1	2	248	0.00	30.254 
14:40	29.0	29.0	29.0	49	12.3	0	2	248	0.00	30.254 
14:45	29.1	29.1	29.1	50	12.8	0	2	248	0.00	30.255 
14:50	29.3	29.3	29.3	50	13.0	0	2	248	0.00	30.255 
14:55	29.4	29.4	29.4	49	12.6	0	2	248	0.00	30.255 
15:00	29.4	29.4	29.4	49	12.6	0	1	248	0.00	30.256 
15:05	29.4	29.4	29.4	49	12.6	0	3	248	0.00	30.256 
15:10	29.5	29.5	29.5	50	13.2	0	2	248	0.00	30.256 
15:15	29.5	29.5	29.5	49	12.7	1	3	248	0.00	30.255 
15:20	29.7	29.7	29.7	49	12.9	1	3	248	0.00	30.255 
15:25	29.8	29.8	29.8	50	13.5	0	2	248	0.00	30.255 
15:30	29.8	29.8	29.8	50	13.5	0	1	248	0.00	30.261 
15:35	30.0	30.0	30.0	50	13.6	0	2	248	0.00	30.261 
15:40	30.1	30.1	30.1	50	13.7	0	1	248	0.00	30.261 
15:45	30.1	30.1	30.1	49	13.3	0	2	248	0.00	30.268 
15:50	30.1	30.1	30.1	50	13.7	0	1	248	0.00	30.268 
15:55	30.3	30.3	30.3	50	13.9	0	1	248	0.00	30.268 
16:00	30.3	30.3	30.3	49	13.5	0	2	248	0.00	30.275 
16:05	30.4	30.4	30.4	49	13.6	0	1	248	0.00	30.275 
16:10	30.4	30.4	30.4	49	13.6	0	2	248	0.00	30.275 
16:15	30.4	30.4	30.4	49	13.6	0	1	248	0.00	30.286 
16:20	30.4	30.4	30.4	50	14.0	0	1	248	0.00	30.286 
16:25	30.4	30.4	30.4	50	14.0	0	1	248	0.00	30.286 
16:30	30.4	30.4	30.4	50	14.0	0	1	248	0.00	30.290 
16:35	30.4	30.4	30.4	50	14.0	0	1	248	0.00	30.290 
16:40	30.4	30.4	30.4	50	14.0	0	1	248	0.00	30.290 
16:45	30.4	30.4	30.4	50	14.0	0	0	---	0.00	30.290 
16:50	30.4	30.4	30.4	50	14.0	0	0	---	0.00	30.290 
16:55	30.4	30.4	30.4	50	14.0	0	1	248	0.00	30.290 
17:00	30.4	30.4	30.4	49	13.6	0	0	---	0.00	30.300 
17:05	30.4	30.4	30.4	49	13.6	0	0	---	0.00	30.300 
17:10	30.4	30.4	30.4	50	14.0	0	0	---	0.00	30.300 
17:15	30.4	30.4	30.4	50	14.0	0	0	---	0.00	30.303 
17:20	30.3	30.3	30.3	51	14.4	0	0	---	0.00	30.303 
17:25	30.3	30.3	30.3	52	14.8	0	0	---	0.00	30.303 
17:30	30.1	30.1	30.1	52	14.6	0	0	---	0.00	30.316 
17:35	30.1	30.1	30.1	52	14.6	0	0	---	0.00	30.316 
17:40	30.1	30.1	30.1	52	14.6	0	0	---	0.00	30.316 
17:45	30.1	30.1	30.1	52	14.6	0	0	---	0.00	30.321 
17:50	30.0	30.0	30.0	52	14.5	0	0	---	0.00	30.321 
17:55	30.0	30.0	30.0	53	15.0	0	0	---	0.00	30.321 
18:00	30.0	30.0	30.0	53	15.0	0	0	---	0.00	30.333 
18:05	29.8	29.8	29.8	53	14.8	0	1	248	0.00	30.333 
18:10	29.8	29.8	29.8	53	14.8	0	0	---	0.00	30.333 
18:15	29.8	29.8	29.8	54	15.2	0	0	---	0.00	30.340 
18:20	29.8	29.8	29.8	54	15.2	0	0	---	0.00	30.340 
18:25	29.8	29.8	29.8	55	15.6	0	0	---	0.00	30.340 
18:30	29.7	29.7	29.7	55	15.5	0	0	---	0.00	30.343 
18:35	29.7	29.7	29.7	57	16.4	0	0	---	0.00	30.343 
18:40	29.7	29.7	29.7	57	16.4	0	0	---	0.00	30.343 
18:45	29.5	29.5	29.5	57	16.2	0	0	---	0.00	30.349 
18:50	29.5	29.5	29.5	57	16.2	0	0	---	0.00	30.349 
18:55	29.5	29.5	29.5	57	16.2	0	1	248	0.00	30.349 
19:00	29.5	29.5	29.5	57	16.2	0	0	---	0.00	30.354 
19:05	29.5	29.5	29.5	58	16.6	0	0	---	0.00	30.354 
19:10	29.5	29.5	29.5	58	16.6	0	0	---	0.00	30.354 
19:15	29.5	29.5	29.5	57	16.2	0	1	248	0.00	30.359 
19:20	29.5	29.5	29.5	58	16.6	0	0	---	0.00	30.359 
19:25	29.5	29.5	29.5	58	16.6	0	0	---	0.00	30.359 
19:30	29.5	29.5	29.5	57	16.2	0	1	248	0.00	30.364 
19:35	29.4	29.4	29.4	57	16.1	0	1	248	0.00	30.364 
19:40	29.4	29.4	29.4	57	16.1	0	1	248	0.00	30.364 
19:45	29.4	29.4	29.4	57	16.1	0	0	---	0.00	30.367 
19:50	29.4	29.4	29.4	58	16.5	0	0	---	0.00	30.367 
19:55	29.4	29.4	29.4	57	16.1	0	0	---	0.00	30.367 
20:00	29.3	29.3	29.3	58	16.4	0	0	---	0.00	30.369 
20:05	29.3	29.3	29.3	58	16.4	0	0	---	0.00	30.369 
20:10	29.3	29.3	29.3	58	16.4	0	0	---	0.00	30.369 
20:15	29.1	29.1	29.1	59	16.6	0	0	---	0.00	30.370 
20:20	29.1	29.1	29.1	59	16.6	0	0	---	0.00	30.370 
20:25	29.1	29.1	29.1	60	17.0	0	0	---	0.00	30.370 
20:30	29.1	29.1	29.1	60	17.0	0	0	---	0.00	30.375 
20:35	29.0	29.0	29.0	61	17.3	0	0	---	0.00	30.375 
20:40	29.0	29.0	29.0	61	17.3	0	0	---	0.00	30.375 
20:45	29.0	29.0	29.0	61	17.3	0	0	---	0.00	30.379 
20:50	28.8	28.8	28.8	61	17.1	0	0	---	0.00	30.379 
20:55	28.8	28.8	28.8	62	17.4	0	0	---	0.00	30.379 
21:00	28.7	28.7	28.7	62	17.4	0	0	---	0.00	30.382 
21:05	28.7	28.7	28.7	62	17.4	0	0	---	0.00	30.382 
21:10	28.7	28.7	28.7	62	17.4	0	0	---	0.00	30.382 
21:15	28.7	28.7	28.7	62	17.4	0	0	---	0.00	30.381 
21:20	28.5	28.5	28.5	62	17.2	0	0	---	0.00	30.381 
21:25	28.5	28.5	28.5	62	17.2	0	0	---	0.00	30.381 
21:30	28.5	28.5	28.5	62	17.2	0	0	---	0.00	30.382 
21:35	28.4	28.4	28.4	63	17.4	0	0	---	0.00	30.382 
21:40	28.2	28.2	28.2	63	17.2	0	0	---	0.00	30.382 
21:45	27.9	27.9	27.9	63	17.0	0	0	---	0.00	30.391 
21:50	27.8	27.8	27.8	64	17.2	0	0	---	0.00	30.391 
21:55	27.5	27.5	27.5	64	16.9	0	0	---	0.00	30.391 
22:00	27.2	27.2	27.2	65	17.0	0	0	---	0.00	30.399 
22:05	26.7	26.7	26.7	66	16.9	0	0	---	0.00	30.399 
22:10	26.4	26.4	26.4	66	16.6	0	0	---	0.00	30.399 
22:15	26.3	26.3	26.3	67	16.9	0	0	---	0.00	30.400 
22:20	26.0	26.0	26.0	67	16.6	0	0	---	0.00	30.400 
22:25	25.7	25.7	25.7	68	16.6	0	0	---	0.00	30.400 
22:30	25.4	25.4	25.4	68	16.3	0	0	---	0.00	30.411 
22:35	25.3	25.3	25.3	69	16.6	0	0	---	0.00	30.411 
22:40	25.0	25.0	25.0	69	16.3	0	0	---	0.00	30.411 
22:45	24.7	24.7	24.7	69	16.0	0	0	---	0.00	30.415 
22:50	24.5	24.5	24.5	70	16.1	0	0	---	0.00	30.415 
22:55	24.4	24.4	24.4	70	16.0	0	0	---	0.00	30.415 
23:00	24.4	24.4	24.4	70	16.0	0	0	---	0.00	30.422 
23:05	24.2	24.2	24.2	70	15.9	0	0	---	0.00	30.422 
23:10	24.1	24.1	24.1	70	15.8	0	0	---	0.00	30.422 
23:15	23.9	23.9	23.9	70	15.6	0	0	---	0.00	30.430 
23:20	23.8	23.8	23.8	71	15.8	0	0	---	0.00	30.430 
23:25	23.6	23.6	23.6	71	15.6	0	0	---	0.00	30.430 
23:30	23.6	23.6	23.6	71	15.6	0	0	---	0.00	30.436 
23:35	23.6	23.6	23.6	71	15.6	0	0	---	0.00	30.436 
23:40	23.5	23.5	23.5	71	15.5	0	0	---	0.00	30.436 
23:45	23.2	23.2	23.2	71	15.2	0	0	---	0.00	30.447 
23:50	23.0	23.0	23.0	71	15.0	0	0	---	0.00	30.447 
23:55	22.7	22.7	22.7	71	14.7	0	0	---	0.00	30.447 

CoCoRaHS
IN-AL-39
A2 Web Hosting
Creative Commons License
GoDaddy
search engine by freefind advanced

loaded 2018-11-17 05:38:51 • last modified 2010-11-18 10:43:29
Privacy PolicyDisclaimer
• wx.awcolley.com is powered by PmWiki v.2002016 •
• all content (unless otherwise noted) © 2018 A W Colley